Time;durP1;ratioP1;P1;durP2;ratioP2;P2;SDS_P1;SDS_P2;PMS_P1;PMS_P2;Temp;Humidity;BMP_temperature;BMP_pressure;BME280_temperature;BME280_humidity;BME280_pressure;Samples;Min_cycle;Max_cycle;Signal;HPM_P1;HPM_P2
2022/07/23 00:01:43;;;;;;;6.03;4.05;;;20.00;99.90;;;20.50;66.02;101834.28;5051813;28;20124;-60
2022/07/23 00:04:12;;;;;;;4.70;3.78;;;20.00;99.90;;;20.63;65.34;101832.13;5051914;28;20045;-59
2022/07/23 00:06:40;;;;;;;5.15;3.78;;;20.10;99.90;;;20.63;64.80;101824.91;5052709;28;20124;-59
2022/07/23 00:09:08;;;;;;;5.03;3.45;;;20.20;99.90;;;20.58;64.26;101808.03;5052060;28;20097;-60
2022/07/23 00:11:36;;;;;;;5.47;4.00;;;20.10;99.90;;;20.62;63.76;101811.50;5051881;28;20051;-59
2022/07/23 00:14:06;;;;;;;4.45;3.83;;;20.10;99.90;;;20.57;64.22;101800.03;5051519;28;20045;-59
2022/07/23 00:16:34;;;;;;;6.57;3.77;;;20.20;99.90;;;20.63;63.99;101813.28;5051608;28;20144;-60
2022/07/23 00:19:03;;;;;;;5.85;4.05;;;20.20;99.90;;;20.54;63.86;101805.47;5051513;28;20049;-59
2022/07/23 00:21:32;;;;;;;7.03;4.07;;;20.20;99.90;;;20.49;63.95;101819.09;5051505;28;20495;-59
2022/07/23 00:24:00;;;;;;;8.90;4.00;;;20.00;99.90;;;20.20;66.28;101819.06;5051352;28;20464;-60
2022/07/23 00:26:28;;;;;;;7.80;3.75;;;19.80;99.90;;;20.23;67.29;101810.00;5050241;28;20483;-59
2022/07/23 00:28:57;;;;;;;5.57;3.60;;;19.70;99.90;;;20.33;66.94;101815.06;5051622;28;20052;-59
2022/07/23 00:31:27;;;;;;;6.47;3.65;;;19.80;99.90;;;20.33;66.46;101800.75;5050114;28;20139;-59
2022/07/23 00:33:56;;;;;;;4.97;4.53;;;19.90;99.90;;;20.33;66.08;101801.66;5052114;28;20041;-60
2022/07/23 00:36:25;;;;;;;5.78;3.92;;;19.90;99.90;;;20.40;65.92;101807.72;5054111;28;20144;-59
2022/07/23 00:38:54;;;;;;;4.60;3.67;;;19.90;99.90;;;20.34;65.60;101781.03;5055412;28;20052;-59
2022/07/23 00:41:22;;;;;;;8.45;3.90;;;20.00;99.90;;;20.50;65.42;101799.31;5055059;28;20379;-59
2022/07/23 00:43:50;;;;;;;5.85;3.67;;;20.10;99.90;;;20.48;65.28;101800.28;5054866;28;20122;-59
2022/07/23 00:46:20;;;;;;;6.90;4.03;;;20.10;99.90;;;20.52;65.13;101796.56;5055277;28;20037;-59
2022/07/23 00:48:50;;;;;;;7.07;3.83;;;20.10;99.90;;;20.56;65.22;101798.25;5053898;28;20126;-59
2022/07/23 00:51:19;;;;;;;4.72;3.70;;;20.20;99.90;;;20.53;65.29;101793.88;5055264;28;20040;-59
2022/07/23 00:53:48;;;;;;;3.97;3.58;;;20.20;99.90;;;20.59;65.04;101798.19;5055109;28;20053;-59
2022/07/23 00:56:16;;;;;;;6.63;3.97;;;20.20;99.90;;;20.61;64.99;101796.31;5055104;28;20124;-59
2022/07/23 00:58:45;;;;;;;5.85;3.80;;;20.20;99.90;;;20.64;64.72;101794.41;5055313;28;20443;-59
2022/07/23 01:01:13;;;;;;;4.70;4.10;;;20.30;99.90;;;20.62;64.89;101796.28;5054996;28;20470;-59
2022/07/23 01:03:42;;;;;;;6.53;3.95;;;20.20;99.90;;;20.62;64.98;101790.88;5054879;28;20517;-59
2022/07/23 01:06:12;;;;;;;7.18;3.63;;;20.20;99.90;;;20.55;65.24;101781.25;5055002;28;20079;-59
2022/07/23 01:08:40;;;;;;;8.30;4.70;;;20.20;99.90;;;20.53;65.26;101782.22;5053190;28;20083;-59
2022/07/23 01:11:09;;;;;;;7.50;4.32;;;20.10;99.90;;;20.46;65.71;101788.72;5054782;28;20374;-59
2022/07/23 01:13:42;;;;;;;7.82;4.30;;;20.10;99.90;;;20.36;66.54;101792.63;5053350;28;20610;-59
2022/07/23 01:16:11;;;;;;;6.35;4.07;;;20.00;99.90;;;20.30;66.63;101801.75;5053391;28;20041;-59
2022/07/23 01:18:40;;;;;;;7.28;4.60;;;19.90;99.90;;;20.18;66.94;101794.03;5054987;28;20123;-60
2022/07/23 01:21:12;;;;;;;7.78;4.10;;;19.80;99.90;;;20.10;67.59;101798.72;5053337;28;20115;-59
2022/07/23 01:23:43;;;;;;;10.07;4.72;;;19.70;99.90;;;20.07;68.17;101789.88;5052968;28;20045;-59
2022/07/23 01:26:11;;;;;;;8.23;4.82;;;19.60;99.90;;;20.15;68.62;101790.53;5069988;28;20471;-59
2022/07/23 01:28:39;;;;;;;8.93;4.75;;;19.70;99.90;;;20.07;68.65;101779.13;5053228;28;20124;-59
2022/07/23 01:31:08;;;;;;;6.07;4.35;;;19.60;99.90;;;20.00;68.54;101772.13;5053146;28;20049;-59
2022/07/23 01:33:36;;;;;;;6.35;4.72;;;19.50;99.90;;;19.93;68.79;101778.63;5053118;28;20049;-59
2022/07/23 01:36:05;;;;;;;13.30;4.70;;;19.50;99.90;;;19.87;68.81;101779.69;5054453;28;20455;-60
2022/07/23 01:38:34;;;;;;;8.45;4.88;;;19.40;99.90;;;19.69;68.74;101758.69;5054725;28;20207;-59
2022/07/23 01:41:04;;;;;;;7.18;4.13;;;19.40;99.90;;;19.79;69.09;101785.28;5053089;28;20156;-59
2022/07/23 01:43:34;;;;;;;7.38;4.43;;;19.30;99.90;;;19.78;69.21;101790.69;5053262;28;20053;-59
2022/07/23 01:46:03;;;;;;;5.38;4.07;;;19.30;99.90;;;19.72;69.25;101785.47;5052213;28;20527;-59
2022/07/23 01:48:38;;;;;;;8.20;4.78;;;19.30;99.90;;;19.61;69.28;101782.19;5053396;28;20049;-59
2022/07/23 01:51:24;;;;;;;5.88;4.25;;;19.20;99.90;;;19.62;69.22;101774.13;5053448;28;20051;-59
2022/07/23 01:54:05;;;;;;;7.28;4.20;;;19.20;99.90;;;19.63;69.25;101781.22;5053023;28;20056;-59
2022/07/23 01:56:35;;;;;;;5.75;4.35;;;19.20;99.90;;;19.66;69.32;101775.78;5054049;28;20498;-59
2022/07/23 01:59:03;;;;;;;7.05;5.00;;;19.20;99.90;;;19.61;69.15;101772.34;5052588;28;20061;-59
2022/07/23 02:01:32;;;;;;;8.77;4.97;;;19.20;99.90;;;19.59;69.58;101767.91;5052696;28;20398;-60
2022/07/23 02:04:00;;;;;;;8.43;4.80;;;19.10;99.90;;;19.58;69.56;101767.06;5052572;28;20056;-59
2022/07/23 02:06:30;;;;;;;5.60;4.20;;;19.10;99.90;;;19.61;69.16;101766.06;5052623;28;20068;-59
2022/07/23 02:08:58;;;;;;;10.15;4.57;;;19.20;99.90;;;19.67;69.22;101768.59;5053860;28;20041;-59
2022/07/23 02:11:27;;;;;;;6.72;4.55;;;19.20;99.90;;;19.66;69.17;101769.53;5052357;28;20044;-60
2022/07/23 02:13:56;;;;;;;6.05;4.50;;;19.20;99.90;;;19.69;69.15;101766.75;5052376;28;20057;-59
2022/07/23 02:16:25;;;;;;;9.07;3.83;;;19.20;99.90;;;19.75;68.96;101774.66;5053719;28;20063;-59
2022/07/23 02:18:53;;;;;;;6.07;4.35;;;19.30;99.90;;;19.64;68.79;101772.28;5052204;28;20052;-59
2022/07/23 02:21:22;;;;;;;6.35;4.45;;;19.20;99.90;;;19.66;68.90;101769.53;5053677;28;20044;-59
2022/07/23 02:23:50;;;;;;;8.38;4.53;;;19.20;99.90;;;19.77;68.83;101776.38;5053818;28;20147;-59
2022/07/23 02:26:19;;;;;;;9.25;4.03;;;19.30;99.90;;;19.58;69.15;101779.59;5052238;28;20402;-60
2022/07/23 02:28:52;;;;;;;6.25;4.43;;;19.20;99.90;;;19.34;69.32;101778.44;5051897;28;20049;-59
2022/07/23 02:31:22;;;;;;;8.98;5.03;;;19.00;99.90;;;19.18;69.50;101786.88;5053774;28;20398;-59
2022/07/23 02:33:50;;;;;;;6.28;4.97;;;18.80;99.90;;;19.09;70.06;101774.56;5053739;28;20577;-59
2022/07/23 02:36:19;;;;;;;10.95;4.93;;;18.70;99.90;;;19.03;70.74;101782.78;5052033;28;20037;-59
2022/07/23 02:38:47;;;;;;;7.60;4.85;;;18.60;99.90;;;19.01;71.04;101789.13;5051972;28;20136;-59
2022/07/23 02:41:16;;;;;;;9.55;5.32;;;18.60;99.90;;;19.01;71.70;101784.59;5052171;28;20049;-59
2022/07/23 02:43:44;;;;;;;10.45;4.95;;;18.60;99.90;;;19.04;72.02;101794.38;5053129;28;20368;-59
2022/07/23 02:46:14;;;;;;;10.30;4.80;;;18.60;99.90;;;18.92;72.16;101791.09;5051888;28;20083;-59
2022/07/23 02:48:45;;;;;;;7.18;4.15;;;18.50;99.90;;;18.59;71.45;101790.97;5051898;28;20045;-59
2022/07/23 02:51:14;;;;;;;9.35;5.05;;;18.30;99.90;;;18.43;72.58;101785.06;5085519;28;20060;-59
2022/07/23 02:53:50;;;;;;;6.20;4.93;;;18.10;99.90;;;18.49;72.94;101787.63;5052210;28;20048;-59
2022/07/23 02:56:18;;;;;;;4.60;3.72;;;18.00;99.90;;;18.37;72.81;101784.31;5051880;28;20044;-59
2022/07/23 02:58:46;;;;;;;6.70;4.35;;;18.00;99.90;;;18.04;73.04;101785.88;5051302;28;20059;-60
2022/07/23 03:01:15;;;;;;;5.90;4.78;;;17.80;99.90;;;17.93;73.90;101783.44;5051499;28;20051;-59
2022/07/23 03:03:48;;;;;;;5.25;4.75;;;17.60;99.90;;;17.85;74.48;101784.47;5051638;28;20052;-60
2022/07/23 03:06:17;;;;;;;4.57;4.18;;;17.50;99.90;;;17.82;74.73;101784.56;5051724;28;20060;-59
2022/07/23 03:08:45;;;;;;;5.53;4.53;;;17.40;99.90;;;17.82;75.05;101781.88;5052902;28;20116;-59
2022/07/23 03:11:13;;;;;;;6.80;4.70;;;17.40;99.90;;;17.95;75.61;101786.06;5051362;28;20352;-59
2022/07/23 03:13:44;;;;;;;5.60;4.85;;;17.40;99.90;;;17.99;75.87;101785.09;5051512;28;20152;-59
2022/07/23 03:16:13;;;;;;;6.53;4.53;;;17.50;99.90;;;17.90;75.84;101787.97;5051249;28;20478;-60
2022/07/23 03:18:41;;;;;;;7.65;5.05;;;17.50;99.90;;;17.87;75.71;101788.00;5051133;28;20068;-59
2022/07/23 03:21:12;;;;;;;10.57;4.70;;;17.40;99.90;;;17.91;75.75;101787.03;5051030;28;20498;-59
2022/07/23 03:23:41;;;;;;;10.15;5.50;;;17.50;99.90;;;17.89;75.50;101788.88;5051040;28;20063;-59
2022/07/23 03:26:09;;;;;;;6.15;5.22;;;17.50;99.90;;;17.97;74.91;101792.28;5051039;28;20091;-60
2022/07/23 03:28:37;;;;;;;7.18;5.47;;;17.60;99.90;;;17.97;75.03;101805.66;5050900;28;20494;-59
2022/07/23 03:31:06;;;;;;;4.93;4.50;;;17.60;99.90;;;17.93;75.08;101787.91;5050880;28;20379;-59
2022/07/23 03:33:35;;;;;;;4.35;4.05;;;17.60;99.90;;;17.89;74.99;101796.91;5050727;28;20560;-59
2022/07/23 03:36:04;;;;;;;5.80;5.25;;;17.50;99.90;;;17.87;75.17;101794.25;5050794;28;20041;-59
2022/07/23 03:38:41;;;;;;;6.43;5.43;;;17.50;99.90;;;17.86;75.73;101803.22;5084334;28;20126;-59
2022/07/23 03:41:09;;;;;;;9.83;5.70;;;17.50;99.90;;;17.84;75.77;101806.84;5050790;28;20055;-59
2022/07/23 03:43:38;;;;;;;7.90;5.53;;;17.40;99.90;;;17.77;75.87;101805.16;5050321;28;20083;-59
2022/07/23 03:46:06;;;;;;;6.88;5.32;;;17.30;99.90;;;17.82;75.88;101800.63;5051786;28;20521;-59
2022/07/23 03:48:35;;;;;;;6.93;5.25;;;17.30;99.90;;;17.91;75.39;101805.78;5050636;28;20433;-59
2022/07/23 03:51:03;;;;;;;7.40;6.35;;;17.40;99.90;;;18.07;75.34;101807.25;5051965;28;20060;-59
2022/07/23 03:53:32;;;;;;;8.60;7.15;;;17.60;99.90;;;18.18;75.17;101807.91;5052004;28;20351;-59
2022/07/23 03:56:03;;;;;;;7.40;6.18;;;17.70;99.90;;;18.26;74.75;101811.31;5051916;28;20072;-60
2022/07/23 03:58:32;;;;;;;6.20;5.60;;;17.80;99.90;;;18.23;74.68;101811.41;5050330;28;20136;-59
2022/07/23 04:01:01;;;;;;;8.48;6.43;;;17.80;99.90;;;18.22;75.19;101806.03;5050424;28;20490;-59
2022/07/23 04:03:29;;;;;;;11.55;5.70;;;17.80;99.90;;;18.24;75.84;101813.16;5051833;28;20041;-59
2022/07/23 04:05:58;;;;;;;8.38;5.80;;;17.80;99.90;;;18.14;76.22;101813.38;5050307;28;20045;-60
2022/07/23 04:08:29;;;;;;;5.95;5.22;;;17.70;99.90;;;18.23;76.36;101819.44;5053226;28;20501;-59
2022/07/23 04:11:00;;;;;;;;;;;17.80;99.90;;;18.27;77.02;101814.88;5057634;28;20059;-59
2022/07/23 04:13:29;;;;;;;8.55;6.43;;;17.90;99.90;;;18.35;76.98;101812.94;5058420;28;19970;-59
2022/07/23 04:15:57;;;;;;;9.50;6.07;;;17.90;99.90;;;18.34;77.32;101814.72;5058568;28;20211;-59
2022/07/23 04:18:26;;;;;;;7.90;6.30;;;17.90;99.90;;;18.40;76.95;101813.72;5057092;28;20487;-59
2022/07/23 04:21:05;;;;;;;6.70;6.05;;;17.90;99.90;;;18.39;76.96;101804.78;5057205;28;20471;-59
2022/07/23 04:23:35;;;;;;;9.02;6.38;;;18.00;99.90;;;17.75;77.04;101697.28;5057080;28;20052;-59
2022/07/23 04:26:03;;;;;;;9.50;6.80;;;18.00;99.90;;;18.40;77.13;101809.25;5056943;28;20128;-59
2022/07/23 04:28:34;;;;;;;6.88;5.43;;;18.00;99.90;;;18.32;77.09;101776.38;5056796;28;20395;-59
2022/07/23 04:31:03;;;;;;;8.20;6.28;;;18.00;99.90;;;18.46;76.95;101809.16;5057095;28;20053;-59
2022/07/23 04:33:32;;;;;;;6.95;5.25;;;18.00;99.90;;;18.34;76.48;101801.34;5057099;28;20041;-59
2022/07/23 04:36:05;;;;;;;6.10;5.60;;;18.00;99.90;;;18.30;76.54;101815.69;5057100;28;20049;-59
2022/07/23 04:38:34;;;;;;;6.55;5.15;;;17.90;99.90;;;18.24;76.64;101809.56;5057039;28;20053;-59
2022/07/23 04:41:04;;;;;;;8.85;5.07;;;17.80;99.90;;;18.25;77.29;101806.00;5057417;28;20033;-59
2022/07/23 04:43:33;;;;;;;7.70;5.53;;;17.80;99.90;;;18.15;76.55;101815.13;5057442;28;20114;-60
2022/07/23 04:46:02;;;;;;;8.17;5.70;;;17.80;99.90;;;18.17;77.12;101819.56;5056890;28;20452;-59
2022/07/23 04:48:36;;;;;;;12.18;5.95;;;17.70;99.90;;;18.26;77.09;101821.16;5057135;28;20481;-59
2022/07/23 04:51:09;;;;;;;8.00;5.80;;;17.80;99.90;;;18.16;76.84;101820.44;5056590;28;20049;-59
2022/07/23 04:53:38;;;;;;;7.72;6.22;;;17.80;99.90;;;17.89;76.34;101802.25;5056768;28;20041;-59
2022/07/23 04:56:07;;;;;;;8.15;6.53;;;17.60;99.90;;;17.97;76.52;101827.97;5090347;28;20108;-59
2022/07/23 04:58:37;;;;;;;6.60;5.93;;;17.50;99.90;;;17.89;77.35;101821.00;5056532;28;20383;-59
2022/07/23 05:01:06;;;;;;;7.60;5.13;;;17.40;99.90;;;17.87;77.82;101826.38;5057013;28;20048;-59
2022/07/23 05:03:36;;;;;;;6.60;5.05;;;17.30;99.90;;;17.90;77.95;101817.44;5056721;28;20127;-59
2022/07/23 05:06:05;;;;;;;5.68;4.85;;;17.40;99.90;;;17.91;78.29;101833.44;5056605;28;20375;-60
2022/07/23 05:08:33;;;;;;;7.85;5.65;;;17.40;99.90;;;17.74;77.42;101792.75;5056878;28;20072;-59
2022/07/23 05:11:02;;;;;;;5.97;5.20;;;17.50;99.90;;;17.87;77.68;101822.81;5056657;28;20083;-60
2022/07/23 05:13:30;;;;;;;5.97;5.03;;;17.50;99.90;;;17.86;78.00;101813.03;5056715;28;20044;-60
2022/07/23 05:16:00;;;;;;;8.88;5.50;;;17.40;99.90;;;17.90;78.84;101807.56;5056344;28;20064;-59
2022/07/23 05:18:29;;;;;;;7.85;5.70;;;17.40;99.90;;;18.07;79.36;101817.06;5056355;28;20083;-59
2022/07/23 05:20:57;;;;;;;6.80;6.10;;;17.60;99.90;;;18.13;79.72;101817.84;5052654;28;20552;-59
2022/07/23 05:23:25;;;;;;;10.70;7.30;;;17.70;99.90;;;18.30;79.26;101820.16;5053413;28;20110;-59
2022/07/23 05:25:54;;;;;;;8.10;6.60;;;17.80;99.90;;;18.43;79.09;101824.38;5053352;28;20052;-59
2022/07/23 05:28:22;;;;;;;10.80;6.53;;;17.90;99.90;;;18.45;78.98;101812.72;5053333;28;20049;-59
2022/07/23 05:30:53;;;;;;;6.75;6.15;;;18.10;99.90;;;18.55;79.02;101833.06;5053330;28;20048;-59
2022/07/23 05:33:24;;;;;;;8.38;7.13;;;18.10;99.90;;;18.70;78.63;101829.13;5053418;28;20041;-60
2022/07/23 05:35:53;;;;;;;10.25;7.35;;;18.20;99.90;;;18.80;78.29;101836.94;5053437;28;20045;-59
2022/07/23 05:38:33;;;;;;;10.55;7.28;;;18.40;99.90;;;19.06;78.04;101846.19;5055022;28;20073;-59
2022/07/23 05:41:03;;;;;;;8.25;7.38;;;18.50;99.90;;;19.14;76.89;101846.91;5053464;28;20445;-60
2022/07/23 05:43:32;;;;;;;10.20;7.53;;;18.70;99.90;;;19.17;76.34;101839.66;5053090;28;20045;-59
2022/07/23 05:46:07;;;;;;;10.35;7.93;;;18.80;99.90;;;19.33;76.62;101845.56;5052971;28;20052;-59
2022/07/23 05:48:39;;;;;;;10.13;7.63;;;18.90;99.90;;;19.31;76.02;101842.00;5052932;28;20049;-60
2022/07/23 05:51:14;;;;;;;8.57;7.68;;;18.90;99.90;;;19.48;75.90;101840.69;5052915;28;20569;-59
2022/07/23 05:53:42;;;;;;;10.80;7.75;;;19.00;99.90;;;19.55;76.20;101844.13;5052818;28;20048;-59
2022/07/23 05:56:15;;;;;;;8.90;7.88;;;19.10;99.90;;;19.59;76.00;101833.25;5052725;28;20056;-59
2022/07/23 05:58:44;;;;;;;12.70;7.05;;;19.20;99.90;;;19.48;75.83;101845.16;5052522;28;20482;-60
2022/07/23 06:01:14;;;;;;;10.82;7.97;;;19.10;99.90;;;19.36;76.58;101845.47;5052755;28;20372;-60
2022/07/23 06:03:51;;;;;;;10.65;7.65;;;18.90;99.90;;;19.29;76.74;101844.72;5052587;28;20052;-59
2022/07/23 06:06:20;;;;;;;8.32;7.43;;;18.80;99.90;;;19.68;76.49;101848.25;5069084;28;20049;-60
2022/07/23 06:08:48;;;;;;;9.30;7.15;;;19.20;99.90;;;19.55;74.99;101849.50;5052730;28;20455;-59
2022/07/23 06:11:17;;;;;;;10.80;8.02;;;19.10;99.90;;;19.69;75.38;101849.97;5052341;28;20055;-59
2022/07/23 06:13:46;;;;;;;8.93;7.13;;;19.20;99.90;;;19.52;75.65;101842.38;5085499;28;20033;-59
2022/07/23 06:16:14;;;;;;;9.80;7.15;;;19.20;99.90;;;19.65;75.44;101832.19;5052205;28;20155;-59
2022/07/23 06:18:43;;;;;;;7.47;6.22;;;19.20;99.90;;;19.97;75.04;101834.91;5053643;28;20447;-60
2022/07/23 06:21:13;;;;;;;10.35;6.28;;;19.50;99.90;;;19.49;73.48;101829.03;5052201;28;20045;-60
2022/07/23 06:24:01;;;;;;;8.23;5.30;;;19.30;99.90;;;19.47;73.08;101840.75;5053706;28;20083;-59
2022/07/23 06:26:30;;;;;;;8.43;6.07;;;19.20;99.90;;;19.44;73.58;101832.75;5053298;28;20047;-59
2022/07/23 06:28:58;;;;;;;9.20;6.18;;;19.10;99.90;;;19.58;73.28;101841.34;5053138;28;20075;-60
2022/07/23 06:31:27;;;;;;;7.82;5.57;;;19.20;99.90;;;19.71;73.13;101845.47;5051507;28;20045;-59
2022/07/23 06:33:55;;;;;;;7.63;4.88;;;19.30;99.90;;;19.42;72.71;101842.63;5053257;28;20049;-59
2022/07/23 06:36:25;;;;;;;10.38;6.53;;;19.00;99.90;;;19.41;73.75;101849.84;5051867;28;20064;-59
2022/07/23 06:38:54;;;;;;;9.60;5.30;;;19.00;99.90;;;19.35;72.64;101852.66;5052889;28;20151;-59
2022/07/23 06:41:22;;;;;;;8.15;5.22;;;19.00;99.90;;;19.21;72.08;101806.47;5051682;28;20513;-59
2022/07/23 06:43:51;;;;;;;7.38;4.78;;;19.00;99.90;;;19.70;71.76;101830.28;5051373;28;20057;-59
2022/07/23 06:46:22;;;;;;;10.75;5.90;;;19.20;99.90;;;19.61;73.07;101809.03;5051541;28;20045;-59
2022/07/23 06:48:51;;;;;;;7.07;5.05;;;19.40;99.90;;;19.64;72.37;101836.69;5051382;28;20063;-60
2022/07/23 06:51:19;;;;;;;9.25;5.28;;;19.30;99.90;;;19.52;73.80;101839.69;5051888;28;20072;-59
2022/07/23 06:53:49;;;;;;;6.50;4.90;;;19.20;99.90;;;19.51;72.79;101856.72;5051574;28;20049;-59
2022/07/23 06:56:17;;;;;;;7.68;5.55;;;19.10;99.90;;;19.35;73.28;101857.16;5051556;28;20040;-60
2022/07/23 06:58:46;;;;;;;5.75;4.68;;;18.90;99.90;;;19.35;73.84;101857.16;5052956;28;20084;-60
2022/07/23 07:01:14;;;;;;;4.97;4.38;;;18.90;99.90;;;19.07;72.70;101858.66;5052464;28;20098;-59
2022/07/23 07:03:43;;;;;;;6.05;4.13;;;18.70;99.90;;;19.19;72.82;101863.75;5052957;28;20120;-59
2022/07/23 07:06:11;;;;;;;4.88;4.03;;;18.70;99.90;;;19.42;71.94;101856.06;5052358;28;20156;-59
2022/07/23 07:08:40;;;;;;;5.38;4.30;;;18.90;99.90;;;19.80;71.94;101880.16;5052448;28;20041;-59
2022/07/23 07:11:10;;;;;;;14.45;4.80;;;19.30;99.90;;;20.01;71.47;101860.78;5052377;28;20047;-59
2022/07/23 07:13:38;;;;;;;7.60;4.15;;;19.60;99.90;;;19.73;71.91;101857.03;5052497;28;20064;-59
2022/07/23 07:16:07;;;;;;;5.22;4.05;;;19.40;99.90;;;20.08;70.54;101867.72;5052319;28;20052;-61
2022/07/23 07:18:35;;;;;;;10.73;3.80;;;19.60;99.90;;;20.21;69.89;101861.09;5052328;28;20049;-59
2022/07/23 07:21:04;;;;;;;7.82;4.18;;;19.80;99.90;;;20.24;69.25;101861.03;5052592;28;20041;-60
2022/07/23 07:23:32;;;;;;;4.53;4.05;;;19.90;99.90;;;20.49;69.22;101870.16;5052489;28;20041;-60
2022/07/23 07:26:01;;;;;;;4.20;3.78;;;20.10;99.90;;;20.41;68.14;101879.38;5052148;28;20129;-59
2022/07/23 07:28:30;;;;;;;7.20;3.88;;;20.00;99.90;;;20.41;70.58;101879.38;5052463;28;20053;-59
2022/07/23 07:30:59;;;;;;;6.73;4.10;;;19.90;99.90;;;20.44;67.31;101874.78;5052861;28;20131;-60
2022/07/23 07:33:27;;;;;;;7.05;4.35;;;20.10;99.90;;;20.57;68.00;101878.00;5052635;28;20528;-59
2022/07/23 07:35:55;;;;;;;6.13;3.95;;;20.10;99.90;;;20.52;66.72;101875.44;5052133;28;20045;-59
2022/07/23 07:38:24;;;;;;;5.25;3.58;;;20.20;99.90;;;20.53;66.99;101889.78;5052020;28;20088;-60
2022/07/23 07:40:52;;;;;;;5.82;3.70;;;20.10;99.90;;;20.52;66.85;101882.63;5051909;28;20128;-59
2022/07/23 07:43:21;;;;;;;6.57;3.28;;;20.10;99.90;;;21.06;67.43;101890.88;5051735;28;20095;-58
2022/07/23 07:45:50;;;;;;;5.72;3.50;;;20.50;99.90;;;21.00;66.13;101897.28;5051820;28;20432;-58
2022/07/23 07:48:19;;;;;;;12.30;3.97;;;20.60;99.90;;;21.38;66.17;101901.50;5050779;28;20069;-58
2022/07/23 07:50:47;;;;;;;6.68;3.40;;;20.90;99.90;;;21.48;64.41;101901.16;5052076;28;20291;-58
2022/07/23 07:53:16;;;;;;;5.57;3.22;;;21.10;99.90;;;21.52;63.66;101899.25;5051808;28;20040;-58
2022/07/23 07:55:45;;;;;;;7.05;3.75;;;21.20;99.90;;;21.31;63.46;101889.19;5051793;28;20068;-59
2022/07/23 07:58:19;;;;;;;4.43;3.78;;;21.00;99.90;;;20.98;63.43;101888.38;5052019;28;20049;-58
2022/07/23 08:00:47;;;;;;;6.57;4.18;;;20.70;99.90;;;21.37;62.55;101899.72;5051679;28;20067;-60
2022/07/23 08:03:17;;;;;;;8.23;3.88;;;21.00;99.90;;;21.49;61.98;101902.00;5051935;28;20115;-59
2022/07/23 08:05:46;;;;;;;6.72;3.72;;;21.10;99.90;;;21.66;61.14;101909.56;5051989;28;20044;-59
2022/07/23 08:08:15;;;;;;;6.65;3.80;;;21.20;99.90;;;21.83;61.09;101905.41;5051588;28;20037;-58
2022/07/23 08:10:44;;;;;;;3.40;3.15;;;21.40;99.90;;;22.19;60.17;101906.78;5051641;28;20114;-60
2022/07/23 08:13:15;;;;;;;6.10;3.45;;;21.70;99.90;;;22.27;59.75;101915.50;5052121;28;20040;-59
2022/07/23 08:15:44;;;;;;;6.68;3.35;;;21.90;99.90;;;22.32;59.56;101907.22;5051625;28;20045;-59
2022/07/23 08:18:14;;;;;;;;;;;22.00;99.90;;;22.42;59.49;101914.94;5052372;28;20441;-58
2022/07/23 08:20:43;;;;;;;3.95;3.20;;;22.10;99.90;;;22.41;58.73;101913.16;5051544;28;20031;-59
2022/07/23 08:23:11;;;;;;;7.18;3.53;;;22.10;99.90;;;22.52;58.07;101922.66;5051851;28;20127;-59
2022/07/23 08:25:43;;;;;;;4.80;3.10;;;22.10;99.90;;;22.82;57.96;101924.28;5051882;28;20092;-58
2022/07/23 08:28:13;;;;;;;4.20;3.58;;;22.40;99.90;;;22.65;57.25;101916.81;5052233;28;20092;-58
2022/07/23 08:30:44;;;;;;;7.60;3.40;;;22.30;99.90;;;22.99;57.18;101908.31;5051977;28;20434;-58
2022/07/23 08:33:16;;;;;;;5.18;3.50;;;22.60;99.90;;;23.30;56.88;101919.66;5051936;28;20052;-58
2022/07/23 08:36:05;;;;;;;4.10;3.42;;;22.90;99.90;;;23.48;55.87;101899.16;5051983;28;20106;-61
2022/07/23 08:38:35;;;;;;;5.93;3.97;;;23.10;99.90;;;23.23;54.96;101918.13;5051351;28;20060;-59
2022/07/23 08:41:05;;;;;;;7.95;3.72;;;23.10;99.90;;;22.76;56.01;101921.81;5051327;28;20039;-59
2022/07/23 08:43:35;;;;;;;4.07;3.67;;;22.50;99.90;;;22.68;56.32;101916.69;5051775;28;20045;-59
2022/07/23 08:46:05;;;;;;;4.75;3.40;;;22.40;99.90;;;22.72;56.28;101915.66;5051291;28;20426;-59
2022/07/23 08:48:37;;;;;;;6.25;3.60;;;22.30;99.90;;;22.94;55.01;101918.38;5051728;28;20041;-59
2022/07/23 08:51:10;;;;;;;3.58;3.28;;;22.40;99.90;;;23.33;55.40;101933.06;5051142;28;20051;-59
2022/07/23 08:53:40;;;;;;;3.78;3.40;;;22.90;99.90;;;23.41;54.45;101930.94;5051497;28;20124;-63
2022/07/23 08:56:09;;;;;;;5.63;3.53;;;23.00;99.90;;;23.83;54.37;101934.56;5055197;28;20059;-59
2022/07/23 08:58:37;;;;;;;4.97;3.53;;;23.50;99.90;;;24.01;53.89;101941.91;5055070;28;20131;-59
2022/07/23 09:01:06;;;;;;;7.13;3.42;;;23.70;99.90;;;24.16;53.13;101933.16;5054851;28;20130;-59
2022/07/23 09:03:39;;;;;;;4.65;3.50;;;23.90;99.90;;;24.48;52.91;101939.84;5055058;28;20132;-60
2022/07/23 09:06:09;;;;;;;4.82;3.03;;;24.10;99.90;;;24.61;52.25;101941.03;5054797;28;20037;-59
2022/07/23 09:08:40;;;;;;;5.30;3.45;;;24.30;99.90;;;24.41;51.03;101937.50;5054907;28;20073;-60
2022/07/23 09:11:10;;;;;;;4.43;2.80;;;24.10;99.90;;;24.68;51.41;101944.38;5054868;28;20159;-62
2022/07/23 09:13:42;;;;;;;5.10;2.95;;;24.30;99.90;;;24.95;51.36;101941.28;5054955;28;20147;-60
2022/07/23 09:16:14;;;;;;;6.28;3.00;;;24.60;99.90;;;25.16;51.44;101942.09;5054879;28;20064;-61
2022/07/23 09:18:46;;;;;;;5.50;3.60;;;24.80;99.90;;;25.10;51.47;101936.09;5070418;28;20049;-61
2022/07/23 09:21:23;;;;;;;4.90;3.05;;;24.80;99.90;;;25.33;49.85;101936.75;5054494;28;20041;-60
2022/07/23 09:23:56;;;;;;;5.35;3.80;;;25.00;99.90;;;25.50;49.11;101938.66;5054683;28;20045;-61
2022/07/23 09:26:34;;;;;;;3.75;2.90;;;25.20;99.90;;;25.74;48.81;101935.63;5054710;28;20068;-59
2022/07/23 09:29:13;;;;;;;4.43;3.10;;;25.40;99.90;;;25.82;47.25;101944.22;5054706;28;20128;-63
2022/07/23 09:31:49;;;;;;;3.45;2.65;;;25.60;99.90;;;25.95;47.53;101917.38;5054606;28;20384;-60
2022/07/23 09:34:21;;;;;;;3.80;3.05;;;25.80;99.90;;;25.99;46.12;101940.69;5054703;28;20120;-61
2022/07/23 09:36:54;;;;;;;3.58;3.25;;;25.80;99.90;;;25.11;47.62;101860.19;5054710;28;20076;-59
2022/07/23 09:39:29;;;;;;;7.28;3.78;;;25.40;99.90;;;25.90;48.88;101936.59;5054260;28;20449;-61
2022/07/23 09:41:58;;;;;;;8.50;4.22;;;25.50;99.90;;;24.90;49.08;101915.38;5054146;28;20102;-61
2022/07/23 09:44:27;;;;;;;12.75;4.47;;;24.90;99.90;;;24.51;50.84;101933.41;5054387;28;20398;-61
2022/07/23 09:47:01;;;;;;;3.95;3.03;;;24.20;99.90;;;24.50;49.48;101943.38;5054435;28;20044;-63
2022/07/23 09:49:30;;;;;;;5.47;3.45;;;24.10;99.90;;;24.44;51.04;101932.81;5054485;28;20080;-62
2022/07/23 09:52:02;;;;;;;4.80;3.28;;;24.10;99.90;;;23.93;50.41;101933.22;5053644;28;20132;-62
2022/07/23 09:54:37;;;;;;;6.13;3.85;;;23.60;99.90;;;23.87;51.12;101925.38;5053846;28;20044;-62
2022/07/23 09:57:09;;;;;;;4.07;3.67;;;23.50;99.90;;;24.48;51.38;101937.13;5053879;28;20545;-62
2022/07/23 09:59:39;;;;;;;6.05;3.63;;;23.90;99.90;;;24.89;49.86;101938.00;5053721;28;20063;-63
2022/07/23 10:02:11;;;;;;;5.35;3.30;;;24.40;99.90;;;25.20;49.81;101942.84;5054007;28;20056;-62
2022/07/23 10:04:57;;;;;;;4.55;3.55;;;24.80;99.90;;;25.63;48.78;101954.25;5052688;28;20059;-62
2022/07/23 10:07:51;;;;;;;8.60;3.53;;;25.20;99.90;;;25.72;47.16;101951.09;5053570;28;20562;-63
2022/07/23 10:10:56;;;;;;;5.00;3.60;;;25.50;99.90;;;25.45;49.38;101947.03;5053421;28;20045;-62
2022/07/23 10:16:29;;;;;;;4.25;3.30;;;25.40;99.90;;;25.87;49.06;101950.31;5009626;28;20053;-63
2022/07/23 10:18:57;;;;;;;5.35;3.97;;;25.50;99.90;;;26.19;48.80;101948.69;5053697;28;20080;-62
2022/07/23 10:21:36;;;;;;;6.22;3.78;;;25.80;99.90;;;26.06;49.25;101943.97;5053697;28;20123;-62
2022/07/23 10:24:22;;;;;;;6.78;4.15;;;25.80;99.90;;;26.24;47.64;101953.88;5052513;28;20131;-63
2022/07/23 10:27:03;;;;;;;9.48;4.18;;;25.90;99.90;;;26.26;48.09;101946.53;5053405;28;20041;-62
2022/07/23 10:29:45;;;;;;;5.40;3.85;;;26.00;99.90;;;26.26;46.86;101925.72;5053289;28;20129;-63